createdAt,value
2022-12-16T00:01:22.956Z,-1.75
2022-12-16T00:06:27.194Z,-1.77
2022-12-16T00:11:28.762Z,-2.19
2022-12-16T00:16:30.321Z,-2.08
2022-12-16T00:21:31.871Z,-2.04
2022-12-16T00:26:33.371Z,-1.86
2022-12-16T00:31:34.952Z,-1.79
2022-12-16T00:36:36.578Z,-1.73
2022-12-16T00:41:38.261Z,-1.80
2022-12-16T00:46:39.659Z,-1.82
2022-12-16T00:51:41.210Z,-1.70
2022-12-16T00:56:42.659Z,-1.50
2022-12-16T01:01:44.348Z,-1.66
2022-12-16T01:06:47.165Z,-1.95
2022-12-16T01:11:48.795Z,-1.95
2022-12-16T01:16:50.280Z,-1.62
2022-12-16T01:21:51.894Z,-1.66
2022-12-16T01:26:53.882Z,-1.91
2022-12-16T01:31:55.513Z,-1.99
2022-12-16T01:36:57.108Z,-1.82
2022-12-16T01:41:58.684Z,-1.99
2022-12-16T01:47:04.691Z,-2.28
2022-12-16T01:52:10.836Z,-2.19
2022-12-16T01:57:15.679Z,-2.06
2022-12-16T02:02:18.510Z,-2.13
2022-12-16T02:07:20.057Z,-2.15
2022-12-16T02:13:00.132Z,-2.07
2022-12-16T02:18:23.229Z,-2.19
2022-12-16T02:24:09.093Z,-2.10
2022-12-16T02:29:32.352Z,-2.02
2022-12-16T02:34:57.257Z,-1.96
2022-12-16T02:40:06.223Z,-1.95
2022-12-16T02:45:18.173Z,-1.91
2022-12-16T02:50:40.766Z,-1.81
2022-12-16T02:55:54.087Z,-1.96
2022-12-16T03:00:55.554Z,-2.01
2022-12-16T03:06:00.177Z,-2.10
2022-12-16T03:11:05.223Z,-2.19
2022-12-16T03:16:10.057Z,-1.87
2022-12-16T03:21:14.236Z,-2.20
2022-12-16T03:26:21.944Z,-2.05
2022-12-16T03:31:41.504Z,-2.03
2022-12-16T03:36:47.925Z,-1.91
2022-12-16T03:41:53.717Z,-2.00
2022-12-16T03:46:55.364Z,-2.05
2022-12-16T03:51:56.832Z,-2.04
2022-12-16T03:56:58.408Z,-2.02
2022-12-16T04:02:00.049Z,-2.09
2022-12-16T04:07:01.688Z,-2.20
2022-12-16T04:12:03.346Z,-2.12
2022-12-16T04:17:06.235Z,-2.13
2022-12-16T04:22:17.873Z,-2.30
2022-12-16T04:27:19.424Z,-2.39
2022-12-16T04:32:21.185Z,-2.47
2022-12-16T04:37:22.711Z,-2.27
2022-12-16T04:42:24.244Z,-2.32
2022-12-16T04:47:26.029Z,-2.49
2022-12-16T04:52:27.543Z,-2.44
2022-12-16T04:57:29.059Z,-2.60
2022-12-16T05:02:30.589Z,-2.53
2022-12-16T05:07:37.937Z,-2.58
2022-12-16T05:12:40.159Z,-2.58
2022-12-16T05:17:41.712Z,-2.55
2022-12-16T05:22:43.166Z,-2.62
2022-12-16T05:27:44.686Z,-2.65
2022-12-16T05:32:49.041Z,-2.68
2022-12-16T05:37:50.478Z,-2.54
2022-12-16T05:42:52.015Z,-2.64
2022-12-16T05:47:53.536Z,-2.53
2022-12-16T05:52:56.708Z,-2.67
2022-12-16T05:57:58.222Z,-2.53
2022-12-16T06:02:59.878Z,-2.54
2022-12-16T06:08:01.523Z,-2.63
2022-12-16T06:13:03.134Z,-2.65
2022-12-16T06:18:04.854Z,-2.67
2022-12-16T06:23:06.322Z,-2.78
2022-12-16T06:28:07.954Z,-2.61
2022-12-16T06:33:09.658Z,-2.62
2022-12-16T06:38:11.062Z,-2.68
2022-12-16T06:43:12.614Z,-2.56
2022-12-16T06:48:14.115Z,-2.80
2022-12-16T06:53:15.532Z,-2.67
2022-12-16T06:58:17.260Z,-2.84
2022-12-16T07:03:18.706Z,-2.79
2022-12-16T07:08:20.233Z,-2.87
2022-12-16T07:13:21.739Z,-2.83
2022-12-16T07:18:23.227Z,-3.03
2022-12-16T07:23:24.831Z,-3.12
2022-12-16T07:28:26.232Z,-2.99
2022-12-16T07:33:27.760Z,-3.03
2022-12-16T07:38:29.340Z,-3.19
2022-12-16T07:43:31.492Z,-2.95
2022-12-16T07:48:33.294Z,-2.93
2022-12-16T07:53:35.127Z,-2.81
2022-12-16T07:58:36.952Z,-3.05
2022-12-16T08:03:38.540Z,-2.97
2022-12-16T08:08:40.289Z,-3.04
2022-12-16T08:13:41.742Z,-2.96
2022-12-16T08:18:43.236Z,-3.09
2022-12-16T08:23:44.742Z,-3.02
2022-12-16T08:28:46.239Z,-2.60
2022-12-16T08:33:47.755Z,-2.28
2022-12-16T08:38:49.295Z,-2.24
2022-12-16T08:43:50.714Z,-2.26
2022-12-16T08:48:52.708Z,-2.27
2022-12-16T08:53:54.238Z,-2.39
2022-12-16T08:58:55.690Z,-2.34
2022-12-16T09:03:57.237Z,-2.27
2022-12-16T09:08:58.908Z,-2.28
2022-12-16T09:14:00.377Z,-2.02
2022-12-16T09:19:01.997Z,-2.00
2022-12-16T09:24:03.720Z,-2.39
2022-12-16T09:29:05.225Z,-2.38
2022-12-16T09:34:06.921Z,-2.40
2022-12-16T09:39:08.458Z,-2.33
2022-12-16T09:44:34.479Z,-2.64
2022-12-16T09:49:47.258Z,-2.74
2022-12-16T09:54:49.018Z,-2.84
2022-12-16T10:00:04.547Z,-2.92
2022-12-16T10:05:22.185Z,-2.84
2022-12-16T10:10:43.824Z,-2.60
2022-12-16T10:15:57.297Z,-2.92
2022-12-16T10:20:58.821Z,-2.54
2022-12-16T10:26:25.842Z,-2.53
2022-12-16T10:31:31.466Z,-2.58
2022-12-16T10:36:37.139Z,-2.49
2022-12-16T10:41:42.401Z,-2.47
2022-12-16T10:46:44.320Z,-2.53
2022-12-16T10:51:45.904Z,-2.48
2022-12-16T10:56:56.984Z,-2.38
2022-12-16T11:02:05.719Z,-2.00
2022-12-16T11:07:23.504Z,-2.22
2022-12-16T11:12:29.158Z,-2.25
2022-12-16T11:17:30.787Z,-2.35
2022-12-16T11:22:32.276Z,-2.17
2022-12-16T11:27:33.959Z,-2.42
2022-12-16T11:32:36.924Z,-2.06
2022-12-16T11:37:40.184Z,-2.08
2022-12-16T11:42:42.064Z,-2.00
2022-12-16T11:47:48.968Z,-2.09
2022-12-16T11:52:56.047Z,-1.84
2022-12-16T11:58:25.309Z,-2.30
2022-12-16T12:03:29.616Z,-2.00
2022-12-16T12:08:45.380Z,-2.06
2022-12-16T12:13:53.876Z,-1.76
2022-12-16T12:19:08.123Z,-1.71
2022-12-16T12:24:28.935Z,-1.88
2022-12-16T12:30:06.899Z,-1.42
2022-12-16T12:35:48.271Z,-1.23
2022-12-16T12:40:52.430Z,-1.15
2022-12-16T12:46:10.875Z,-1.18
2022-12-16T12:51:20.506Z,-1.05
2022-12-16T12:56:22.062Z,-1.03
2022-12-16T13:01:29.580Z,-1.01
2022-12-16T13:06:32.332Z,-1.04
2022-12-16T13:11:35.385Z,-0.99
2022-12-16T13:16:46.301Z,-1.05
2022-12-16T13:21:48.080Z,-0.98
2022-12-16T13:27:01.733Z,-0.96
2022-12-16T13:32:12.192Z,-0.94
2022-12-16T13:37:33.653Z,-1.02
2022-12-16T13:42:50.468Z,-0.97
2022-12-16T13:47:54.823Z,-1.02
2022-12-16T13:52:58.797Z,-1.00
2022-12-16T13:58:05.243Z,-1.09
2022-12-16T14:03:19.990Z,-1.01
2022-12-16T14:08:24.541Z,-1.14
2022-12-16T14:13:34.249Z,-1.19
2022-12-16T14:19:11.775Z,-1.27
2022-12-16T14:24:27.639Z,-1.36
2022-12-16T14:29:32.395Z,-1.35
2022-12-16T14:34:36.597Z,-1.48
2022-12-16T14:39:39.759Z,-1.52
2022-12-16T14:44:45.232Z,-1.57
2022-12-16T14:49:50.733Z,-1.65
2022-12-16T14:54:52.278Z,-1.83
2022-12-16T15:00:24.075Z,-1.92
2022-12-16T15:05:32.551Z,-2.03
2022-12-16T15:10:34.617Z,-2.07
2022-12-16T15:15:41.884Z,-2.16
2022-12-16T15:20:50.691Z,-2.28
2022-12-16T15:26:03.671Z,-2.31
2022-12-16T15:31:14.334Z,-2.45
2022-12-16T15:36:24.941Z,-2.55
2022-12-16T15:41:32.996Z,-2.80
2022-12-16T15:46:36.705Z,-2.74
2022-12-16T15:51:47.366Z,-2.88
2022-12-16T15:56:54.065Z,-2.80
2022-12-16T16:01:59.720Z,-2.87
2022-12-16T16:07:15.662Z,-2.93
2022-12-16T16:12:21.001Z,-2.99
2022-12-16T16:17:23.145Z,-3.18
2022-12-16T16:22:24.686Z,-3.14
2022-12-16T16:27:28.472Z,-3.25
2022-12-16T16:32:29.925Z,-3.30
2022-12-16T16:37:31.477Z,-3.45
2022-12-16T16:42:32.961Z,-3.35
2022-12-16T16:47:34.542Z,-3.46
2022-12-16T16:52:35.949Z,-3.53
2022-12-16T16:57:38.157Z,-3.57
2022-12-16T17:02:41.445Z,-3.65
2022-12-16T17:07:43.398Z,-3.69
2022-12-16T17:12:45.583Z,-3.73
2022-12-16T17:17:47.114Z,-3.94
2022-12-16T17:22:48.616Z,-3.88
2022-12-16T17:27:50.196Z,-3.85
2022-12-16T17:32:51.738Z,-3.82
2022-12-16T17:37:53.200Z,-3.85
2022-12-16T17:42:54.682Z,-3.66
2022-12-16T17:47:56.205Z,-3.55
2022-12-16T17:52:59.094Z,-3.63
2022-12-16T17:58:00.561Z,-3.58
2022-12-16T18:03:02.119Z,-3.75
2022-12-16T18:08:04.103Z,-3.93
2022-12-16T18:13:05.632Z,-3.80
2022-12-16T18:18:07.047Z,-3.88
2022-12-16T18:23:08.504Z,-3.86
2022-12-16T18:28:09.961Z,-3.72
2022-12-16T18:33:11.565Z,-3.69
2022-12-16T18:38:16.383Z,-4.07
2022-12-16T18:43:18.206Z,-4.22
2022-12-16T18:48:19.667Z,-4.20
2022-12-16T18:53:21.235Z,-3.98
2022-12-16T19:03:44.380Z,-4.12
2022-12-16T19:08:45.948Z,-4.09
2022-12-16T19:13:49.100Z,-4.09
2022-12-16T19:18:50.667Z,-3.92
2022-12-16T19:23:53.145Z,-4.12
2022-12-16T19:28:56.687Z,-4.45
2022-12-16T19:33:58.732Z,-4.40
2022-12-16T19:39:00.428Z,-4.33
2022-12-16T19:44:06.168Z,-4.22
2022-12-16T19:49:24.787Z,-4.44
2022-12-16T19:54:26.208Z,-4.14
2022-12-16T19:59:27.752Z,-4.51
2022-12-16T20:04:29.419Z,-4.41
2022-12-16T20:09:30.935Z,-4.37
2022-12-16T20:14:32.533Z,-4.29
2022-12-16T20:19:34.067Z,-4.36
2022-12-16T20:24:35.516Z,-4.18
2022-12-16T20:29:37.034Z,-4.17
2022-12-16T20:34:38.590Z,-4.10
2022-12-16T20:39:40.128Z,-3.90
2022-12-16T20:44:41.863Z,-3.74
2022-12-16T20:49:43.366Z,-3.84
2022-12-16T20:54:44.988Z,-3.83
2022-12-16T20:59:46.695Z,-3.98
2022-12-16T21:04:49.967Z,-3.87
2022-12-16T21:09:51.827Z,-3.69
2022-12-16T21:14:53.516Z,-3.82
2022-12-16T21:19:54.940Z,-3.97
2022-12-16T21:24:57.855Z,-3.53
2022-12-16T21:29:59.422Z,-3.81
2022-12-16T21:35:00.883Z,-3.77
2022-12-16T21:40:02.459Z,-3.64
2022-12-16T21:45:04.638Z,-3.80
2022-12-16T21:50:06.391Z,-3.72
2022-12-16T21:55:07.932Z,-3.49
2022-12-16T22:00:10.050Z,-3.72
2022-12-16T22:05:11.588Z,-3.50
2022-12-16T22:10:13.223Z,-3.45
2022-12-16T22:15:14.713Z,-3.44
2022-12-16T22:20:16.398Z,-3.50
2022-12-16T22:25:18.134Z,-3.40
2022-12-16T22:30:19.684Z,-3.43
2022-12-16T22:35:21.203Z,-3.46
2022-12-16T22:40:22.801Z,-3.29
2022-12-16T22:45:24.330Z,-3.25
2022-12-16T22:50:25.887Z,-3.17
2022-12-16T22:55:27.370Z,-3.16
2022-12-16T23:00:29.064Z,-3.09
2022-12-16T23:05:30.767Z,-3.27
2022-12-16T23:10:32.284Z,-3.19
2022-12-16T23:15:34.087Z,-3.02
2022-12-16T23:20:35.620Z,-2.75
2022-12-16T23:25:37.199Z,-2.87
2022-12-16T23:30:38.774Z,-2.68
2022-12-16T23:35:40.319Z,-3.00
2022-12-16T23:40:41.798Z,-2.87
2022-12-16T23:45:44.263Z,-2.86
2022-12-16T23:50:45.726Z,-2.85
2022-12-16T23:55:47.215Z,-2.78
